sensor_id;sensor_type;location;lat;lon;timestamp;temperature;humidity
13310;DHT22;6723;48.256;16.402;2022-09-13T00:01:47;15.30;99.90
13310;DHT22;6723;48.256;16.402;2022-09-13T00:04:12;15.30;99.90
13310;DHT22;6723;48.256;16.402;2022-09-13T00:06:38;15.30;99.90
13310;DHT22;6723;48.256;16.402;2022-09-13T00:09:04;15.20;99.90
13310;DHT22;6723;48.256;16.402;2022-09-13T00:11:30;15.10;99.90
13310;DHT22;6723;48.256;16.402;2022-09-13T00:13:56;15.00;99.90
13310;DHT22;6723;48.256;16.402;2022-09-13T00:16:24;14.90;99.90
13310;DHT22;6723;48.256;16.402;2022-09-13T00:18:53;14.80;99.90
13310;DHT22;6723;48.256;16.402;2022-09-13T00:21:21;14.80;99.90
13310;DHT22;6723;48.256;16.402;2022-09-13T00:24:10;14.70;99.90
13310;DHT22;6723;48.256;16.402;2022-09-13T00:26:36;14.70;99.90
13310;DHT22;6723;48.256;16.402;2022-09-13T00:29:02;14.70;99.90
13310;DHT22;6723;48.256;16.402;2022-09-13T00:31:27;14.60;99.90
13310;DHT22;6723;48.256;16.402;2022-09-13T00:33:54;14.70;99.90
13310;DHT22;6723;48.256;16.402;2022-09-13T00:36:20;14.70;99.90
13310;DHT22;6723;48.256;16.402;2022-09-13T00:38:46;14.60;99.90
13310;DHT22;6723;48.256;16.402;2022-09-13T00:41:14;14.60;99.90
13310;DHT22;6723;48.256;16.402;2022-09-13T00:43:50;14.50;99.90
13310;DHT22;6723;48.256;16.402;2022-09-13T00:46:38;14.50;99.90
13310;DHT22;6723;48.256;16.402;2022-09-13T00:49:16;14.40;99.90
13310;DHT22;6723;48.256;16.402;2022-09-13T00:51:49;14.40;99.90
13310;DHT22;6723;48.256;16.402;2022-09-13T00:54:19;14.40;99.90
13310;DHT22;6723;48.256;16.402;2022-09-13T00:56:51;14.40;99.90
13310;DHT22;6723;48.256;16.402;2022-09-13T00:59:26;14.30;99.90
13310;DHT22;6723;48.256;16.402;2022-09-13T01:01:55;14.20;99.90
13310;DHT22;6723;48.256;16.402;2022-09-13T01:04:24;14.20;99.90
13310;DHT22;6723;48.256;16.402;2022-09-13T01:06:54;14.20;99.90
13310;DHT22;6723;48.256;16.402;2022-09-13T01:09:22;14.20;99.90
13310;DHT22;6723;48.256;16.402;2022-09-13T01:12:00;14.10;99.90
13310;DHT22;6723;48.256;16.402;2022-09-13T01:14:30;14.10;99.90
13310;DHT22;6723;48.256;16.402;2022-09-13T01:16:57;14.10;99.90
13310;DHT22;6723;48.256;16.402;2022-09-13T01:19:23;14.10;99.90
13310;DHT22;6723;48.256;16.402;2022-09-13T01:25:12;14.10;99.90
13310;DHT22;6723;48.256;16.402;2022-09-13T01:30:44;14.10;99.90
13310;DHT22;6723;48.256;16.402;2022-09-13T01:33:30;14.10;99.90
13310;DHT22;6723;48.256;16.402;2022-09-13T01:38:53;14.00;99.90
13310;DHT22;6723;48.256;16.402;2022-09-13T01:44:17;14.00;99.90
13310;DHT22;6723;48.256;16.402;2022-09-13T01:52:04;13.80;99.90
13310;DHT22;6723;48.256;16.402;2022-09-13T01:54:56;13.80;99.90
13310;DHT22;6723;48.256;16.402;2022-09-13T02:00:13;13.70;99.90
13310;DHT22;6723;48.256;16.402;2022-09-13T02:02:47;13.80;99.90
13310;DHT22;6723;48.256;16.402;2022-09-13T02:08:01;13.70;99.90
13310;DHT22;6723;48.256;16.402;2022-09-13T02:10:34;13.70;99.90
13310;DHT22;6723;48.256;16.402;2022-09-13T02:13:06;13.60;99.90
13310;DHT22;6723;48.256;16.402;2022-09-13T02:15:40;13.70;99.90
13310;DHT22;6723;48.256;16.402;2022-09-13T02:20:47;13.70;99.90
13310;DHT22;6723;48.256;16.402;2022-09-13T02:23:18;13.60;99.90
13310;DHT22;6723;48.256;16.402;2022-09-13T02:25:49;13.60;99.90
13310;DHT22;6723;48.256;16.402;2022-09-13T02:28:20;13.50;99.90
13310;DHT22;6723;48.256;16.402;2022-09-13T02:30:50;13.40;99.90
13310;DHT22;6723;48.256;16.402;2022-09-13T02:33:32;13.40;99.90
13310;DHT22;6723;48.256;16.402;2022-09-13T02:36:07;13.30;99.90
13310;DHT22;6723;48.256;16.402;2022-09-13T02:38:46;13.30;99.90
13310;DHT22;6723;48.256;16.402;2022-09-13T02:41:34;13.40;99.90
13310;DHT22;6723;48.256;16.402;2022-09-13T02:47:03;13.40;99.90
13310;DHT22;6723;48.256;16.402;2022-09-13T02:59:55;13.10;99.90
13310;DHT22;6723;48.256;16.402;2022-09-13T03:02:25;13.00;99.90
13310;DHT22;6723;48.256;16.402;2022-09-13T03:04:53;12.90;99.90
13310;DHT22;6723;48.256;16.402;2022-09-13T03:07:18;13.00;99.90
13310;DHT22;6723;48.256;16.402;2022-09-13T03:10:07;13.00;99.90
13310;DHT22;6723;48.256;16.402;2022-09-13T03:20:50;13.00;99.90
13310;DHT22;6723;48.256;16.402;2022-09-13T03:23:41;13.00;99.90
13310;DHT22;6723;48.256;16.402;2022-09-13T03:29:05;12.90;99.90
13310;DHT22;6723;48.256;16.402;2022-09-13T03:37:26;12.80;99.90
13310;DHT22;6723;48.256;16.402;2022-09-13T03:40:09;12.80;99.90
13310;DHT22;6723;48.256;16.402;2022-09-13T03:43:01;12.70;99.90
13310;DHT22;6723;48.256;16.402;2022-09-13T03:45:32;12.70;99.90
13310;DHT22;6723;48.256;16.402;2022-09-13T03:48:02;12.60;99.90
13310;DHT22;6723;48.256;16.402;2022-09-13T03:50:29;12.70;99.90
13310;DHT22;6723;48.256;16.402;2022-09-13T03:53:01;12.70;99.90
13310;DHT22;6723;48.256;16.402;2022-09-13T03:55:31;12.70;99.90
13310;DHT22;6723;48.256;16.402;2022-09-13T03:57:57;12.60;99.90
13310;DHT22;6723;48.256;16.402;2022-09-13T04:00:23;12.70;99.90
13310;DHT22;6723;48.256;16.402;2022-09-13T04:02:49;12.60;99.90
13310;DHT22;6723;48.256;16.402;2022-09-13T04:05:16;12.60;99.90
13310;DHT22;6723;48.256;16.402;2022-09-13T04:07:42;12.60;99.90
13310;DHT22;6723;48.256;16.402;2022-09-13T04:10:08;12.50;99.90
13310;DHT22;6723;48.256;16.402;2022-09-13T04:12:35;12.50;99.90
13310;DHT22;6723;48.256;16.402;2022-09-13T04:15:00;12.50;99.90
13310;DHT22;6723;48.256;16.402;2022-09-13T04:17:27;12.40;99.90
13310;DHT22;6723;48.256;16.402;2022-09-13T04:19:52;12.40;99.90
13310;DHT22;6723;48.256;16.402;2022-09-13T04:22:18;12.40;99.90
13310;DHT22;6723;48.256;16.402;2022-09-13T04:24:44;12.30;99.90
13310;DHT22;6723;48.256;16.402;2022-09-13T04:27:10;12.30;99.90
13310;DHT22;6723;48.256;16.402;2022-09-13T04:29:36;12.30;99.90
13310;DHT22;6723;48.256;16.402;2022-09-13T04:32:02;12.30;99.90
13310;DHT22;6723;48.256;16.402;2022-09-13T04:34:34;12.20;99.90
13310;DHT22;6723;48.256;16.402;2022-09-13T04:37:00;12.20;99.90
13310;DHT22;6723;48.256;16.402;2022-09-13T04:39:26;12.20;99.90
13310;DHT22;6723;48.256;16.402;2022-09-13T04:41:51;12.20;99.90
13310;DHT22;6723;48.256;16.402;2022-09-13T04:44:22;12.10;99.90
13310;DHT22;6723;48.256;16.402;2022-09-13T04:46:49;12.20;99.90
13310;DHT22;6723;48.256;16.402;2022-09-13T04:49:16;12.30;99.90
13310;DHT22;6723;48.256;16.402;2022-09-13T04:51:43;12.30;99.90
13310;DHT22;6723;48.256;16.402;2022-09-13T04:54:10;12.30;99.90
13310;DHT22;6723;48.256;16.402;2022-09-13T04:56:36;12.30;99.90
13310;DHT22;6723;48.256;16.402;2022-09-13T04:59:02;12.20;99.90
13310;DHT22;6723;48.256;16.402;2022-09-13T05:01:29;12.20;99.90
13310;DHT22;6723;48.256;16.402;2022-09-13T05:03:55;12.30;99.90
13310;DHT22;6723;48.256;16.402;2022-09-13T05:06:21;12.30;99.90
13310;DHT22;6723;48.256;16.402;2022-09-13T05:08:54;12.40;99.90
13310;DHT22;6723;48.256;16.402;2022-09-13T05:11:22;12.50;99.90
13310;DHT22;6723;48.256;16.402;2022-09-13T05:13:52;12.60;99.90
13310;DHT22;6723;48.256;16.402;2022-09-13T05:16:25;12.70;99.90
13310;DHT22;6723;48.256;16.402;2022-09-13T05:18:51;12.70;99.90
13310;DHT22;6723;48.256;16.402;2022-09-13T05:21:18;12.70;99.90
13310;DHT22;6723;48.256;16.402;2022-09-13T05:23:47;12.80;99.90
13310;DHT22;6723;48.256;16.402;2022-09-13T05:26:13;12.90;99.90
13310;DHT22;6723;48.256;16.402;2022-09-13T05:28:39;13.00;99.90
13310;DHT22;6723;48.256;16.402;2022-09-13T05:31:06;13.10;99.90
13310;DHT22;6723;48.256;16.402;2022-09-13T05:33:37;13.10;99.90
13310;DHT22;6723;48.256;16.402;2022-09-13T05:36:04;13.20;99.90
13310;DHT22;6723;48.256;16.402;2022-09-13T05:38:31;13.30;99.90
13310;DHT22;6723;48.256;16.402;2022-09-13T05:40:59;13.30;99.90
13310;DHT22;6723;48.256;16.402;2022-09-13T05:43:27;13.30;99.90
13310;DHT22;6723;48.256;16.402;2022-09-13T05:46:12;13.40;99.90
13310;DHT22;6723;48.256;16.402;2022-09-13T05:48:39;13.50;99.90
13310;DHT22;6723;48.256;16.402;2022-09-13T05:51:11;13.60;99.90
13310;DHT22;6723;48.256;16.402;2022-09-13T05:53:38;13.80;99.90
13310;DHT22;6723;48.256;16.402;2022-09-13T05:56:06;13.80;99.90
13310;DHT22;6723;48.256;16.402;2022-09-13T05:58:32;14.00;99.90
13310;DHT22;6723;48.256;16.402;2022-09-13T06:00:59;14.10;99.90
13310;DHT22;6723;48.256;16.402;2022-09-13T06:03:25;14.30;99.90
13310;DHT22;6723;48.256;16.402;2022-09-13T06:05:57;14.40;99.90
13310;DHT22;6723;48.256;16.402;2022-09-13T06:08:24;14.60;99.90
13310;DHT22;6723;48.256;16.402;2022-09-13T06:11:01;14.80;99.90
13310;DHT22;6723;48.256;16.402;2022-09-13T06:13:28;15.00;99.90
13310;DHT22;6723;48.256;16.402;2022-09-13T06:15:55;15.10;99.90
13310;DHT22;6723;48.256;16.402;2022-09-13T06:18:22;15.20;99.90
13310;DHT22;6723;48.256;16.402;2022-09-13T06:20:50;15.50;99.90
13310;DHT22;6723;48.256;16.402;2022-09-13T06:23:16;15.50;99.90
13310;DHT22;6723;48.256;16.402;2022-09-13T06:25:42;15.70;99.90
13310;DHT22;6723;48.256;16.402;2022-09-13T06:28:09;15.70;99.90
13310;DHT22;6723;48.256;16.402;2022-09-13T06:30:35;15.90;99.90
13310;DHT22;6723;48.256;16.402;2022-09-13T06:33:01;16.10;99.90
13310;DHT22;6723;48.256;16.402;2022-09-13T06:35:27;16.20;99.90
13310;DHT22;6723;48.256;16.402;2022-09-13T06:37:56;16.40;99.90
13310;DHT22;6723;48.256;16.402;2022-09-13T06:40:24;16.60;99.90
13310;DHT22;6723;48.256;16.402;2022-09-13T06:42:50;16.80;99.90
13310;DHT22;6723;48.256;16.402;2022-09-13T06:45:16;16.90;99.90
13310;DHT22;6723;48.256;16.402;2022-09-13T06:47:43;17.10;99.90
13310;DHT22;6723;48.256;16.402;2022-09-13T06:50:09;17.60;99.90
13310;DHT22;6723;48.256;16.402;2022-09-13T06:52:35;18.20;99.90
13310;DHT22;6723;48.256;16.402;2022-09-13T06:55:01;18.90;99.90
13310;DHT22;6723;48.256;16.402;2022-09-13T06:57:29;19.40;99.90
13310;DHT22;6723;48.256;16.402;2022-09-13T06:59:55;20.70;99.90
13310;DHT22;6723;48.256;16.402;2022-09-13T07:02:21;22.00;99.90
13310;DHT22;6723;48.256;16.402;2022-09-13T07:04:48;22.80;99.90
13310;DHT22;6723;48.256;16.402;2022-09-13T07:07:14;23.50;99.80
13310;DHT22;6723;48.256;16.402;2022-09-13T07:09:40;24.40;96.70
13310;DHT22;6723;48.256;16.402;2022-09-13T07:12:07;25.30;94.70
13310;DHT22;6723;48.256;16.402;2022-09-13T07:14:33;25.80;91.40
13310;DHT22;6723;48.256;16.402;2022-09-13T07:16:59;26.30;90.70
13310;DHT22;6723;48.256;16.402;2022-09-13T07:19:26;26.20;88.80
13310;DHT22;6723;48.256;16.402;2022-09-13T07:21:54;27.00;83.20
13310;DHT22;6723;48.256;16.402;2022-09-13T07:24:21;27.00;82.60
13310;DHT22;6723;48.256;16.402;2022-09-13T07:26:48;27.00;80.60
13310;DHT22;6723;48.256;16.402;2022-09-13T07:29:19;26.80;80.60
13310;DHT22;6723;48.256;16.402;2022-09-13T07:31:49;27.80;78.90
13310;DHT22;6723;48.256;16.402;2022-09-13T07:34:20;28.40;73.60
13310;DHT22;6723;48.256;16.402;2022-09-13T07:36:46;29.50;71.50
13310;DHT22;6723;48.256;16.402;2022-09-13T07:39:14;29.20;69.60
13310;DHT22;6723;48.256;16.402;2022-09-13T07:41:40;28.90;66.90
13310;DHT22;6723;48.256;16.402;2022-09-13T07:44:08;29.20;66.10
13310;DHT22;6723;48.256;16.402;2022-09-13T07:49:29;29.00;66.10
13310;DHT22;6723;48.256;16.402;2022-09-13T07:51:55;28.90;65.70
13310;DHT22;6723;48.256;16.402;2022-09-13T07:54:21;29.00;64.20
13310;DHT22;6723;48.256;16.402;2022-09-13T07:56:46;28.10;65.40
13310;DHT22;6723;48.256;16.402;2022-09-13T07:59:24;28.00;64.40
13310;DHT22;6723;48.256;16.402;2022-09-13T08:01:50;27.50;64.40
13310;DHT22;6723;48.256;16.402;2022-09-13T08:04:26;27.80;65.40
13310;DHT22;6723;48.256;16.402;2022-09-13T08:06:52;28.00;66.00
13310;DHT22;6723;48.256;16.402;2022-09-13T08:09:18;28.40;65.20
13310;DHT22;6723;48.256;16.402;2022-09-13T08:11:46;28.60;65.10
13310;DHT22;6723;48.256;16.402;2022-09-13T08:14:14;28.90;63.90
13310;DHT22;6723;48.256;16.402;2022-09-13T08:16:40;28.90;63.50
13310;DHT22;6723;48.256;16.402;2022-09-13T08:19:25;28.40;64.00
13310;DHT22;6723;48.256;16.402;2022-09-13T08:21:50;27.70;65.80
13310;DHT22;6723;48.256;16.402;2022-09-13T08:24:18;27.40;65.30
13310;DHT22;6723;48.256;16.402;2022-09-13T08:26:46;26.00;67.10
13310;DHT22;6723;48.256;16.402;2022-09-13T08:29:13;25.20;71.40
13310;DHT22;6723;48.256;16.402;2022-09-13T08:31:39;25.90;72.60
13310;DHT22;6723;48.256;16.402;2022-09-13T08:34:09;25.50;72.30
13310;DHT22;6723;48.256;16.402;2022-09-13T08:36:36;25.50;74.20
13310;DHT22;6723;48.256;16.402;2022-09-13T08:39:02;25.90;72.60
13310;DHT22;6723;48.256;16.402;2022-09-13T08:44:33;25.80;74.10
13310;DHT22;6723;48.256;16.402;2022-09-13T08:55:07;26.40;70.40
13310;DHT22;6723;48.256;16.402;2022-09-13T08:58:04;26.40;70.50
13310;DHT22;6723;48.256;16.402;2022-09-13T09:00:39;26.30;71.60
13310;DHT22;6723;48.256;16.402;2022-09-13T09:03:40;26.50;70.80
13310;DHT22;6723;48.256;16.402;2022-09-13T09:06:02;25.90;70.10
13310;DHT22;6723;48.256;16.402;2022-09-13T09:08:47;25.70;71.60
13310;DHT22;6723;48.256;16.402;2022-09-13T09:11:27;25.10;74.70
13310;DHT22;6723;48.256;16.402;2022-09-13T09:14:05;26.20;71.50
13310;DHT22;6723;48.256;16.402;2022-09-13T09:16:43;26.50;73.90
13310;DHT22;6723;48.256;16.402;2022-09-13T09:19:32;27.00;71.20
13310;DHT22;6723;48.256;16.402;2022-09-13T09:22:02;27.10;70.80
13310;DHT22;6723;48.256;16.402;2022-09-13T09:24:33;27.50;69.70
13310;DHT22;6723;48.256;16.402;2022-09-13T09:27:01;27.50;66.70
13310;DHT22;6723;48.256;16.402;2022-09-13T09:29:36;27.60;67.00
13310;DHT22;6723;48.256;16.402;2022-09-13T09:37:35;28.20;68.60
13310;DHT22;6723;48.256;16.402;2022-09-13T09:40:04;28.40;66.20
13310;DHT22;6723;48.256;16.402;2022-09-13T09:42:45;28.30;64.70
13310;DHT22;6723;48.256;16.402;2022-09-13T09:45:30;28.30;64.70
13310;DHT22;6723;48.256;16.402;2022-09-13T09:48:01;28.50;65.70
13310;DHT22;6723;48.256;16.402;2022-09-13T09:50:36;27.90;64.60
13310;DHT22;6723;48.256;16.402;2022-09-13T09:53:07;27.60;66.30
13310;DHT22;6723;48.256;16.402;2022-09-13T09:55:50;28.10;66.30
13310;DHT22;6723;48.256;16.402;2022-09-13T10:01:01;28.70;65.40
13310;DHT22;6723;48.256;16.402;2022-09-13T10:03:28;28.40;64.10
13310;DHT22;6723;48.256;16.402;2022-09-13T10:06:19;28.30;65.50
13310;DHT22;6723;48.256;16.402;2022-09-13T10:11:44;29.20;62.20
13310;DHT22;6723;48.256;16.402;2022-09-13T10:14:43;29.50;60.70
13310;DHT22;6723;48.256;16.402;2022-09-13T10:19:39;28.90;63.00
13310;DHT22;6723;48.256;16.402;2022-09-13T10:22:12;28.70;62.90
13310;DHT22;6723;48.256;16.402;2022-09-13T10:24:38;29.20;62.70
13310;DHT22;6723;48.256;16.402;2022-09-13T10:27:40;29.00;62.10
13310;DHT22;6723;48.256;16.402;2022-09-13T10:30:04;29.30;61.60
13310;DHT22;6723;48.256;16.402;2022-09-13T10:32:32;29.40;60.90
13310;DHT22;6723;48.256;16.402;2022-09-13T10:35:16;29.10;62.00
13310;DHT22;6723;48.256;16.402;2022-09-13T10:37:44;30.00;60.40
13310;DHT22;6723;48.256;16.402;2022-09-13T10:40:29;30.20;58.80
13310;DHT22;6723;48.256;16.402;2022-09-13T10:42:59;29.50;61.10
13310;DHT22;6723;48.256;16.402;2022-09-13T10:45:29;30.10;61.00
13310;DHT22;6723;48.256;16.402;2022-09-13T10:48:12;31.00;59.30
13310;DHT22;6723;48.256;16.402;2022-09-13T10:50:39;30.80;59.00
13310;DHT22;6723;48.256;16.402;2022-09-13T10:53:34;31.10;58.40
13310;DHT22;6723;48.256;16.402;2022-09-13T10:56:01;30.80;57.80
13310;DHT22;6723;48.256;16.402;2022-09-13T10:58:27;31.30;58.60
13310;DHT22;6723;48.256;16.402;2022-09-13T11:01:16;31.90;56.70
13310;DHT22;6723;48.256;16.402;2022-09-13T11:06:35;30.60;56.80
13310;DHT22;6723;48.256;16.402;2022-09-13T11:09:14;30.90;59.20
13310;DHT22;6723;48.256;16.402;2022-09-13T11:27:57;31.90;54.30
13310;DHT22;6723;48.256;16.402;2022-09-13T11:30:27;32.30;53.80
13310;DHT22;6723;48.256;16.402;2022-09-13T11:38:38;31.60;53.40
13310;DHT22;6723;48.256;16.402;2022-09-13T11:44:31;31.20;55.50
13310;DHT22;6723;48.256;16.402;2022-09-13T11:58:02;32.00;54.30
13310;DHT22;6723;48.256;16.402;2022-09-13T12:00:45;32.10;53.80
13310;DHT22;6723;48.256;16.402;2022-09-13T12:06:27;33.00;53.20
13310;DHT22;6723;48.256;16.402;2022-09-13T12:08:59;33.10;51.60
13310;DHT22;6723;48.256;16.402;2022-09-13T12:11:34;33.00;51.90
13310;DHT22;6723;48.256;16.402;2022-09-13T12:14:06;32.90;50.90
13310;DHT22;6723;48.256;16.402;2022-09-13T12:17:03;32.80;50.90
13310;DHT22;6723;48.256;16.402;2022-09-13T12:19:44;32.90;50.90
13310;DHT22;6723;48.256;16.402;2022-09-13T12:22:10;32.30;52.00
13310;DHT22;6723;48.256;16.402;2022-09-13T12:24:42;32.10;52.60
13310;DHT22;6723;48.256;16.402;2022-09-13T12:27:33;31.90;52.80
13310;DHT22;6723;48.256;16.402;2022-09-13T12:30:21;31.40;54.00
13310;DHT22;6723;48.256;16.402;2022-09-13T12:32:49;31.00;53.70
13310;DHT22;6723;48.256;16.402;2022-09-13T12:50:54;29.30;56.50
13310;DHT22;6723;48.256;16.402;2022-09-13T13:00:59;28.90;58.50
13310;DHT22;6723;48.256;16.402;2022-09-13T13:03:35;28.70;58.20
13310;DHT22;6723;48.256;16.402;2022-09-13T13:08:58;28.50;58.50
13310;DHT22;6723;48.256;16.402;2022-09-13T13:11:26;28.50;58.30
13310;DHT22;6723;48.256;16.402;2022-09-13T13:14:01;28.70;57.00
13310;DHT22;6723;48.256;16.402;2022-09-13T13:16:39;27.50;58.90
13310;DHT22;6723;48.256;16.402;2022-09-13T13:19:31;27.10;59.50
13310;DHT22;6723;48.256;16.402;2022-09-13T13:23:01;27.50;60.20
13310;DHT22;6723;48.256;16.402;2022-09-13T13:25:34;27.60;59.80
13310;DHT22;6723;48.256;16.402;2022-09-13T13:36:31;27.60;59.90
13310;DHT22;6723;48.256;16.402;2022-09-13T13:38:59;27.80;58.30
13310;DHT22;6723;48.256;16.402;2022-09-13T13:43:59;26.50;60.50
13310;DHT22;6723;48.256;16.402;2022-09-13T13:46:28;26.40;61.60
13310;DHT22;6723;48.256;16.402;2022-09-13T13:49:34;26.20;62.20
13310;DHT22;6723;48.256;16.402;2022-09-13T13:51:42;26.00;62.90
13310;DHT22;6723;48.256;16.402;2022-09-13T14:19:24;26.20;61.60
13310;DHT22;6723;48.256;16.402;2022-09-13T14:22:15;26.00;61.90
13310;DHT22;6723;48.256;16.402;2022-09-13T14:24:49;26.30;62.60
13310;DHT22;6723;48.256;16.402;2022-09-13T14:29:49;26.00;63.80
13310;DHT22;6723;48.256;16.402;2022-09-13T14:32:23;26.00;63.80
13310;DHT22;6723;48.256;16.402;2022-09-13T14:35:01;26.10;64.70
13310;DHT22;6723;48.256;16.402;2022-09-13T14:37:33;26.20;65.60
13310;DHT22;6723;48.256;16.402;2022-09-13T14:42:25;26.10;64.30
13310;DHT22;6723;48.256;16.402;2022-09-13T14:44:51;25.80;63.60
13310;DHT22;6723;48.256;16.402;2022-09-13T14:47:19;25.40;64.20
13310;DHT22;6723;48.256;16.402;2022-09-13T14:50:12;25.10;65.10
13310;DHT22;6723;48.256;16.402;2022-09-13T14:53:04;24.90;65.70
13310;DHT22;6723;48.256;16.402;2022-09-13T14:55:49;25.00;66.50
13310;DHT22;6723;48.256;16.402;2022-09-13T14:58:24;24.80;67.80
13310;DHT22;6723;48.256;16.402;2022-09-13T15:00:51;25.00;68.80
13310;DHT22;6723;48.256;16.402;2022-09-13T15:03:20;25.10;68.00
13310;DHT22;6723;48.256;16.402;2022-09-13T15:06:00;25.10;67.60
13310;DHT22;6723;48.256;16.402;2022-09-13T15:11:00;25.10;67.50
13310;DHT22;6723;48.256;16.402;2022-09-13T15:13:26;25.00;68.60
13310;DHT22;6723;48.256;16.402;2022-09-13T15:15:53;25.00;67.80
13310;DHT22;6723;48.256;16.402;2022-09-13T15:23:21;24.80;69.90
13310;DHT22;6723;48.256;16.402;2022-09-13T15:25:58;24.70;70.60
13310;DHT22;6723;48.256;16.402;2022-09-13T15:28:29;24.60;69.90
13310;DHT22;6723;48.256;16.402;2022-09-13T15:30:57;24.60;70.80
13310;DHT22;6723;48.256;16.402;2022-09-13T15:33:32;24.50;71.50
13310;DHT22;6723;48.256;16.402;2022-09-13T15:41:33;24.30;72.10
13310;DHT22;6723;48.256;16.402;2022-09-13T15:44:01;24.20;73.20
13310;DHT22;6723;48.256;16.402;2022-09-13T15:46:28;24.20;72.30
13310;DHT22;6723;48.256;16.402;2022-09-13T15:49:00;24.10;73.40
13310;DHT22;6723;48.256;16.402;2022-09-13T15:51:26;24.10;73.70
13310;DHT22;6723;48.256;16.402;2022-09-13T15:53:53;24.00;74.30
13310;DHT22;6723;48.256;16.402;2022-09-13T15:56:21;24.00;76.00
13310;DHT22;6723;48.256;16.402;2022-09-13T15:58:49;23.70;75.20
13310;DHT22;6723;48.256;16.402;2022-09-13T16:01:15;23.70;77.00
13310;DHT22;6723;48.256;16.402;2022-09-13T16:03:41;23.60;76.30
13310;DHT22;6723;48.256;16.402;2022-09-13T16:06:08;23.50;76.50
13310;DHT22;6723;48.256;16.402;2022-09-13T16:08:37;23.40;76.70
13310;DHT22;6723;48.256;16.402;2022-09-13T16:11:04;23.40;77.40
13310;DHT22;6723;48.256;16.402;2022-09-13T16:13:31;23.40;79.10
13310;DHT22;6723;48.256;16.402;2022-09-13T16:15:57;23.40;80.00
13310;DHT22;6723;48.256;16.402;2022-09-13T16:18:23;23.40;81.50
13310;DHT22;6723;48.256;16.402;2022-09-13T16:20:50;23.30;81.50
13310;DHT22;6723;48.256;16.402;2022-09-13T16:23:15;23.30;82.80
13310;DHT22;6723;48.256;16.402;2022-09-13T16:25:41;23.40;83.80
13310;DHT22;6723;48.256;16.402;2022-09-13T16:28:16;23.20;84.10
13310;DHT22;6723;48.256;16.402;2022-09-13T16:30:42;23.10;84.40
13310;DHT22;6723;48.256;16.402;2022-09-13T16:33:08;22.90;85.60
13310;DHT22;6723;48.256;16.402;2022-09-13T16:35:34;22.80;86.30
13310;DHT22;6723;48.256;16.402;2022-09-13T16:38:00;22.70;86.80
13310;DHT22;6723;48.256;16.402;2022-09-13T16:40:26;22.70;88.80
13310;DHT22;6723;48.256;16.402;2022-09-13T16:42:51;22.80;90.00
13310;DHT22;6723;48.256;16.402;2022-09-13T16:45:38;22.70;89.90
13310;DHT22;6723;48.256;16.402;2022-09-13T16:48:06;22.70;91.60
13310;DHT22;6723;48.256;16.402;2022-09-13T16:50:33;22.70;90.40
13310;DHT22;6723;48.256;16.402;2022-09-13T16:52:59;22.70;88.40
13310;DHT22;6723;48.256;16.402;2022-09-13T16:55:25;22.60;87.80
13310;DHT22;6723;48.256;16.402;2022-09-13T16:57:52;22.60;88.20
13310;DHT22;6723;48.256;16.402;2022-09-13T17:00:18;22.60;88.50
13310;DHT22;6723;48.256;16.402;2022-09-13T17:02:46;22.60;88.30
13310;DHT22;6723;48.256;16.402;2022-09-13T17:05:12;22.60;86.30
13310;DHT22;6723;48.256;16.402;2022-09-13T17:07:38;22.60;86.10
13310;DHT22;6723;48.256;16.402;2022-09-13T17:10:05;22.50;84.80
13310;DHT22;6723;48.256;16.402;2022-09-13T17:12:32;22.50;85.30
13310;DHT22;6723;48.256;16.402;2022-09-13T17:14:59;22.50;85.20
13310;DHT22;6723;48.256;16.402;2022-09-13T17:17:26;22.50;85.90
13310;DHT22;6723;48.256;16.402;2022-09-13T17:19:53;22.40;86.00
13310;DHT22;6723;48.256;16.402;2022-09-13T17:22:26;22.40;86.40
13310;DHT22;6723;48.256;16.402;2022-09-13T17:24:59;22.30;87.00
13310;DHT22;6723;48.256;16.402;2022-09-13T17:27:26;22.30;87.90
13310;DHT22;6723;48.256;16.402;2022-09-13T17:29:52;22.20;88.50
13310;DHT22;6723;48.256;16.402;2022-09-13T17:32:18;22.20;89.00
13310;DHT22;6723;48.256;16.402;2022-09-13T17:34:44;22.20;89.20
13310;DHT22;6723;48.256;16.402;2022-09-13T17:37:10;22.20;89.70
13310;DHT22;6723;48.256;16.402;2022-09-13T17:39:36;22.10;90.10
13310;DHT22;6723;48.256;16.402;2022-09-13T17:42:02;22.10;90.40
13310;DHT22;6723;48.256;16.402;2022-09-13T17:44:27;22.20;90.50
13310;DHT22;6723;48.256;16.402;2022-09-13T17:46:53;22.10;90.70
13310;DHT22;6723;48.256;16.402;2022-09-13T17:49:19;22.10;91.10
13310;DHT22;6723;48.256;16.402;2022-09-13T17:51:45;22.00;91.60
13310;DHT22;6723;48.256;16.402;2022-09-13T17:54:11;22.10;92.10
13310;DHT22;6723;48.256;16.402;2022-09-13T17:56:40;22.00;92.10
13310;DHT22;6723;48.256;16.402;2022-09-13T17:59:13;22.10;91.80
13310;DHT22;6723;48.256;16.402;2022-09-13T18:01:45;22.10;91.70
13310;DHT22;6723;48.256;16.402;2022-09-13T18:04:12;22.10;92.20
13310;DHT22;6723;48.256;16.402;2022-09-13T18:06:38;21.90;92.10
13310;DHT22;6723;48.256;16.402;2022-09-13T18:09:11;22.00;92.30
13310;DHT22;6723;48.256;16.402;2022-09-13T18:11:39;22.00;92.70
13310;DHT22;6723;48.256;16.402;2022-09-13T18:14:06;22.00;92.50
13310;DHT22;6723;48.256;16.402;2022-09-13T18:16:36;22.00;92.50
13310;DHT22;6723;48.256;16.402;2022-09-13T18:19:02;22.00;93.20
13310;DHT22;6723;48.256;16.402;2022-09-13T18:21:28;21.90;93.30
13310;DHT22;6723;48.256;16.402;2022-09-13T18:24:02;21.90;93.30
13310;DHT22;6723;48.256;16.402;2022-09-13T18:26:29;21.90;93.60
13310;DHT22;6723;48.256;16.402;2022-09-13T18:29:04;21.80;94.30
13310;DHT22;6723;48.256;16.402;2022-09-13T18:31:32;21.80;94.40
13310;DHT22;6723;48.256;16.402;2022-09-13T18:34:00;21.80;94.60
13310;DHT22;6723;48.256;16.402;2022-09-13T18:36:28;21.80;94.90
13310;DHT22;6723;48.256;16.402;2022-09-13T18:38:55;21.80;94.60
13310;DHT22;6723;48.256;16.402;2022-09-13T18:41:26;21.80;95.10
13310;DHT22;6723;48.256;16.402;2022-09-13T18:43:54;21.80;94.80
13310;DHT22;6723;48.256;16.402;2022-09-13T18:46:23;21.70;95.50
13310;DHT22;6723;48.256;16.402;2022-09-13T18:48:51;21.60;95.80
13310;DHT22;6723;48.256;16.402;2022-09-13T18:51:20;21.60;96.10
13310;DHT22;6723;48.256;16.402;2022-09-13T18:53:47;21.50;96.40
13310;DHT22;6723;48.256;16.402;2022-09-13T18:56:22;21.40;96.90
13310;DHT22;6723;48.256;16.402;2022-09-13T18:58:48;21.40;97.60
13310;DHT22;6723;48.256;16.402;2022-09-13T19:01:16;21.30;97.70
13310;DHT22;6723;48.256;16.402;2022-09-13T19:03:57;21.30;98.20
13310;DHT22;6723;48.256;16.402;2022-09-13T19:06:36;21.20;98.20
13310;DHT22;6723;48.256;16.402;2022-09-13T19:09:04;21.10;98.60
13310;DHT22;6723;48.256;16.402;2022-09-13T19:11:38;21.00;99.30
13310;DHT22;6723;48.256;16.402;2022-09-13T19:14:04;20.90;99.60
13310;DHT22;6723;48.256;16.402;2022-09-13T19:16:31;20.80;99.60
13310;DHT22;6723;48.256;16.402;2022-09-13T19:18:57;20.70;99.90